createdAt,value
2018-12-05T00:03:53.197Z,1005.56
2018-12-05T00:13:53.294Z,1005.38
2018-12-05T00:23:53.219Z,1005.42
2018-12-05T00:33:57.037Z,1005.56
2018-12-05T00:43:53.311Z,1005.32
2018-12-05T00:53:53.280Z,1005.25
2018-12-05T01:03:53.261Z,1005.17
2018-12-05T01:13:53.219Z,1005.18
2018-12-05T01:23:53.245Z,1005.08
2018-12-05T01:33:53.185Z,1005.22
2018-12-05T01:43:53.116Z,1005.27
2018-12-05T01:53:53.196Z,1005.13
2018-12-05T02:03:53.183Z,1005.02
2018-12-05T02:13:53.265Z,1004.98
2018-12-05T02:23:53.262Z,1004.78
2018-12-05T02:33:53.350Z,1004.81
2018-12-05T02:43:53.291Z,1004.63
2018-12-05T02:53:53.285Z,1004.59
2018-12-05T03:03:53.186Z,1004.54
2018-12-05T03:13:53.257Z,1004.37
2018-12-05T03:23:53.097Z,1004.48
2018-12-05T03:33:53.231Z,1004.30
2018-12-05T03:43:53.939Z,1004.31
2018-12-05T03:53:53.738Z,1004.26
2018-12-05T04:03:53.339Z,1004.35
2018-12-05T04:13:53.139Z,1004.46
2018-12-05T04:23:53.233Z,1004.47
2018-12-05T04:33:53.151Z,1004.47
2018-12-05T04:43:53.192Z,1004.38
2018-12-05T04:53:53.122Z,1004.48
2018-12-05T05:03:53.188Z,1004.35
2018-12-05T05:13:53.140Z,1004.24
2018-12-05T05:23:53.138Z,1004.31
2018-12-05T05:33:53.205Z,1004.08
2018-12-05T05:43:54.060Z,1004.09
2018-12-05T05:53:53.143Z,1004.01
2018-12-05T06:03:53.165Z,1003.98
2018-12-05T06:13:53.139Z,1004.00
2018-12-05T06:23:53.147Z,1003.90
2018-12-05T06:33:54.150Z,1004.00
2018-12-05T06:43:53.311Z,1003.91
2018-12-05T06:53:53.265Z,1004.03
2018-12-05T07:03:53.261Z,1004.06
2018-12-05T07:13:53.258Z,1003.90
2018-12-05T07:23:53.196Z,1004.03
2018-12-05T07:33:53.842Z,1003.94
2018-12-05T07:43:53.148Z,1003.91
2018-12-05T07:53:53.187Z,1003.83
2018-12-05T08:03:53.211Z,1003.77
2018-12-05T08:13:53.269Z,1003.55
2018-12-05T08:23:53.230Z,1003.41
2018-12-05T08:33:53.217Z,1003.46
2018-12-05T08:43:53.234Z,1003.45
2018-12-05T08:53:53.046Z,1003.33
2018-12-05T09:03:53.147Z,1002.99
2018-12-05T09:13:53.106Z,1003.08
2018-12-05T09:23:53.090Z,1002.85
2018-12-05T09:33:53.162Z,1002.93
2018-12-05T09:43:53.175Z,1002.90
2018-12-05T09:53:53.125Z,1002.90
2018-12-05T10:03:54.249Z,1002.97
2018-12-05T10:13:54.063Z,1002.72
2018-12-05T10:23:53.327Z,1002.53
2018-12-05T10:33:53.224Z,1002.30
2018-12-05T10:43:53.076Z,1002.06
2018-12-05T10:53:53.165Z,1001.90
2018-12-05T11:03:53.190Z,1001.63
2018-12-05T11:13:53.183Z,1001.46
2018-12-05T11:23:53.091Z,1001.33
2018-12-05T11:33:53.837Z,1001.20
2018-12-05T11:43:53.044Z,1001.11
2018-12-05T11:53:53.205Z,1001.02
2018-12-05T12:03:53.091Z,1000.83
2018-12-05T12:13:53.231Z,1000.77
2018-12-05T12:23:53.399Z,1000.62
2018-12-05T12:33:53.800Z,1000.34
2018-12-05T12:43:53.026Z,1000.31
2018-12-05T12:53:53.151Z,1000.17
2018-12-05T13:03:53.084Z,1000.08
2018-12-05T13:13:53.202Z,1000.03
2018-12-05T13:23:53.252Z,999.75
2018-12-05T13:33:53.978Z,999.73
2018-12-05T13:43:53.231Z,999.56
2018-12-05T13:53:53.268Z,999.47
2018-12-05T14:03:56.205Z,999.30
2018-12-05T14:13:53.112Z,999.18
2018-12-05T14:23:53.278Z,999.03
2018-12-05T14:33:53.203Z,999.03
2018-12-05T14:43:53.250Z,998.97
2018-12-05T14:53:53.148Z,998.82
2018-12-05T15:03:53.264Z,998.57
2018-12-05T15:13:53.285Z,998.14
2018-12-05T15:23:53.211Z,997.95
2018-12-05T15:33:53.178Z,997.76
2018-12-05T15:43:53.017Z,997.69
2018-12-05T15:53:53.191Z,997.61
2018-12-05T16:03:53.130Z,997.50
2018-12-05T16:13:53.172Z,997.47
2018-12-05T16:23:53.182Z,997.39
2018-12-05T16:33:53.055Z,997.14
2018-12-05T16:43:53.160Z,996.99
2018-12-05T16:53:53.221Z,996.89
2018-12-05T17:03:53.183Z,996.66
2018-12-05T17:13:53.125Z,996.43
2018-12-05T17:23:53.124Z,996.27
2018-12-05T17:33:53.053Z,996.02
2018-12-05T17:43:53.251Z,996.03
2018-12-05T17:53:53.148Z,995.92
2018-12-05T18:03:53.232Z,995.71
2018-12-05T18:13:53.957Z,995.36
2018-12-05T18:23:54.008Z,995.10
2018-12-05T18:33:53.155Z,994.94
2018-12-05T18:43:53.107Z,994.89
2018-12-05T18:53:53.183Z,994.59
2018-12-05T19:03:53.106Z,994.75
2018-12-05T19:13:53.082Z,994.70
2018-12-05T19:23:53.183Z,994.86
2018-12-05T19:33:53.089Z,994.70
2018-12-05T19:43:53.068Z,994.49
2018-12-05T19:53:53.130Z,994.28
2018-12-05T20:03:52.953Z,994.50
2018-12-05T20:13:53.123Z,994.41
2018-12-05T20:23:53.202Z,994.52
2018-12-05T20:33:53.733Z,994.27
2018-12-05T20:43:53.101Z,994.02
2018-12-05T20:53:53.666Z,994.11
2018-12-05T21:03:53.137Z,994.11
2018-12-05T21:13:53.056Z,993.98
2018-12-05T21:23:53.765Z,993.81
2018-12-05T21:33:53.122Z,994.00
2018-12-05T21:43:53.068Z,993.77
2018-12-05T21:53:53.079Z,993.66
2018-12-05T22:03:53.109Z,993.66
2018-12-05T22:13:53.086Z,993.58
2018-12-05T22:23:53.144Z,993.67
2018-12-05T22:33:53.106Z,993.46
2018-12-05T22:43:53.125Z,993.43
2018-12-05T22:53:53.370Z,993.61
2018-12-05T23:03:53.037Z,993.80
2018-12-05T23:13:53.182Z,993.77
2018-12-05T23:23:53.163Z,993.81
2018-12-05T23:33:53.077Z,993.86
2018-12-05T23:43:53.155Z,993.72
2018-12-05T23:53:53.300Z,993.79
